createdAt,value
2023-01-07T00:00:37.834Z,3.02
2023-01-07T00:03:41.073Z,3.01
2023-01-07T00:06:44.568Z,2.85
2023-01-07T00:09:46.774Z,2.85
2023-01-07T00:12:49.073Z,2.77
2023-01-07T00:15:51.318Z,2.99
2023-01-07T00:18:54.905Z,2.98
2023-01-07T00:21:57.137Z,3.15
2023-01-07T00:24:59.360Z,3.13
2023-01-07T00:28:01.897Z,2.92
2023-01-07T00:31:07.388Z,2.85
2023-01-07T00:34:10.244Z,2.82
2023-01-07T00:37:38.149Z,2.84
2023-01-07T00:40:40.373Z,2.88
2023-01-07T00:43:42.587Z,3.05
2023-01-07T00:46:44.872Z,3.09
2023-01-07T00:49:47.189Z,3.06
2023-01-07T00:52:50.413Z,3.04
2023-01-07T00:55:52.754Z,2.87
2023-01-07T00:58:55.009Z,2.85
2023-01-07T01:02:01.268Z,2.98
2023-01-07T01:05:05.202Z,2.94
2023-01-07T01:08:07.809Z,2.99
2023-01-07T01:11:11.636Z,2.84
2023-01-07T01:14:13.884Z,2.70
2023-01-07T01:17:16.123Z,2.50
2023-01-07T01:20:19.076Z,2.40
2023-01-07T01:23:21.800Z,2.29
2023-01-07T01:26:24.049Z,2.30
2023-01-07T01:29:26.372Z,2.24
2023-01-07T01:32:29.214Z,2.23
2023-01-07T01:35:31.740Z,2.22
2023-01-07T01:38:34.197Z,2.26
2023-01-07T01:41:36.842Z,2.34
2023-01-07T01:44:55.283Z,2.38
2023-01-07T01:48:07.083Z,2.57
2023-01-07T01:51:11.132Z,2.54
2023-01-07T01:54:16.239Z,2.61
2023-01-07T01:57:23.192Z,2.62
2023-01-07T02:00:29.703Z,2.66
2023-01-07T02:03:34.535Z,2.61
2023-01-07T02:06:43.871Z,2.71
2023-01-07T02:10:15.571Z,2.91
2023-01-07T02:13:37.075Z,2.95
2023-01-07T02:17:05.622Z,2.74
2023-01-07T02:20:25.912Z,2.60
2023-01-07T02:24:12.834Z,2.47
2023-01-07T02:27:27.134Z,2.33
2023-01-07T02:30:35.611Z,2.10
2023-01-07T02:34:05.094Z,2.19
2023-01-07T02:37:15.721Z,2.19
2023-01-07T02:40:50.487Z,2.06
2023-01-07T02:43:55.156Z,2.03
2023-01-07T02:46:59.479Z,2.00
2023-01-07T02:50:01.981Z,1.99
2023-01-07T02:53:08.580Z,2.14
2023-01-07T02:56:16.506Z,2.16
2023-01-07T02:59:22.246Z,2.17
2023-01-07T03:02:48.627Z,2.26
2023-01-07T03:05:53.610Z,2.29
2023-01-07T03:09:16.050Z,2.26
2023-01-07T03:12:29.632Z,2.10
2023-01-07T03:15:56.942Z,2.06
2023-01-07T03:19:36.442Z,1.95
2023-01-07T03:22:43.136Z,1.92
2023-01-07T03:25:50.151Z,1.93
2023-01-07T03:28:55.857Z,2.10
2023-01-07T03:32:14.373Z,1.90
2023-01-07T03:35:18.935Z,1.71
2023-01-07T03:38:23.516Z,1.45
2023-01-07T03:41:45.768Z,1.35
2023-01-07T03:44:49.098Z,1.11
2023-01-07T03:47:55.550Z,0.93
2023-01-07T03:50:59.656Z,0.97
2023-01-07T03:54:01.863Z,0.81
2023-01-07T03:57:04.327Z,0.76
2023-01-07T04:00:09.086Z,0.63
2023-01-07T04:03:16.759Z,0.81
2023-01-07T04:06:21.673Z,0.89
2023-01-07T04:09:24.066Z,0.90
2023-01-07T04:12:26.450Z,0.90
2023-01-07T04:15:34.853Z,0.93
2023-01-07T04:18:38.461Z,0.90
2023-01-07T04:21:41.243Z,1.08
2023-01-07T04:24:43.628Z,1.03
2023-01-07T04:27:48.702Z,1.11
2023-01-07T04:30:51.454Z,0.99
2023-01-07T04:34:01.109Z,0.90
2023-01-07T04:37:03.442Z,0.99
2023-01-07T04:40:06.709Z,1.20
2023-01-07T04:43:11.255Z,1.26
2023-01-07T04:46:13.619Z,1.30
2023-01-07T04:49:16.054Z,1.34
2023-01-07T04:52:18.744Z,1.14
2023-01-07T04:55:21.622Z,1.10
2023-01-07T04:58:24.102Z,1.18
2023-01-07T05:01:27.823Z,1.18
2023-01-07T05:04:30.559Z,1.21
2023-01-07T05:07:33.289Z,1.41
2023-01-07T05:10:36.111Z,1.41
2023-01-07T05:13:40.244Z,1.44
2023-01-07T05:16:43.148Z,1.41
2023-01-07T05:19:47.152Z,1.32
2023-01-07T05:22:50.364Z,1.24
2023-01-07T05:25:54.305Z,1.16
2023-01-07T05:28:59.401Z,1.14
2023-01-07T05:32:02.490Z,1.13
2023-01-07T05:35:05.315Z,1.08
2023-01-07T05:38:07.716Z,1.05
2023-01-07T05:41:10.121Z,1.03
2023-01-07T05:44:12.577Z,1.01
2023-01-07T05:47:14.827Z,1.07
2023-01-07T05:50:17.188Z,0.96
2023-01-07T05:53:19.522Z,1.08
2023-01-07T05:56:22.033Z,1.03
2023-01-07T05:59:24.264Z,1.16
2023-01-07T06:02:26.533Z,1.04
2023-01-07T06:05:28.788Z,0.89
2023-01-07T06:08:30.979Z,0.83
2023-01-07T06:11:33.153Z,0.72
2023-01-07T06:14:35.431Z,0.73
2023-01-07T06:17:37.696Z,0.76
2023-01-07T06:20:40.001Z,0.75
2023-01-07T06:23:43.508Z,0.87
2023-01-07T06:26:45.829Z,0.97
2023-01-07T06:29:48.023Z,1.05
2023-01-07T06:32:50.283Z,1.03
2023-01-07T06:35:52.521Z,0.96
2023-01-07T06:38:54.733Z,0.97
2023-01-07T06:41:56.977Z,0.94
2023-01-07T06:44:59.279Z,1.03
2023-01-07T06:48:01.872Z,1.07
2023-01-07T06:51:04.211Z,1.18
2023-01-07T06:54:07.619Z,1.31
2023-01-07T06:57:09.852Z,1.35
2023-01-07T07:00:12.555Z,1.54
2023-01-07T07:03:14.849Z,1.66
2023-01-07T07:06:17.129Z,1.92
2023-01-07T07:09:19.404Z,2.50
2023-01-07T07:12:21.598Z,2.68
2023-01-07T07:15:23.838Z,3.02
2023-01-07T07:18:27.046Z,3.26
2023-01-07T07:21:29.374Z,3.36
2023-01-07T07:24:31.634Z,3.54
2023-01-07T07:27:33.875Z,3.67
2023-01-07T07:30:47.359Z,3.71
2023-01-07T07:33:50.401Z,4.14
2023-01-07T07:36:52.619Z,4.14
2023-01-07T07:39:54.831Z,4.76
2023-01-07T07:43:10.637Z,4.77
2023-01-07T07:46:15.426Z,5.16
2023-01-07T07:49:17.799Z,5.49
2023-01-07T07:52:20.085Z,5.59
2023-01-07T07:55:26.108Z,5.98
2023-01-07T07:58:28.806Z,6.65
2023-01-07T08:01:31.098Z,7.40
2023-01-07T08:04:34.949Z,8.29
2023-01-07T08:07:37.814Z,9.01
2023-01-07T08:10:40.640Z,8.99
2023-01-07T08:13:42.832Z,7.94
2023-01-07T08:16:45.115Z,7.87
2023-01-07T08:19:47.363Z,8.44
2023-01-07T08:22:49.648Z,8.24
2023-01-07T08:25:51.824Z,8.87
2023-01-07T08:28:54.416Z,9.13
2023-01-07T08:31:58.581Z,10.26
2023-01-07T08:35:00.850Z,10.88
2023-01-07T08:38:05.599Z,9.10
2023-01-07T08:41:07.904Z,9.24
2023-01-07T08:44:10.144Z,10.40
2023-01-07T08:47:12.400Z,11.09
2023-01-07T08:50:14.773Z,12.16
2023-01-07T08:53:17.012Z,13.36
2023-01-07T08:56:19.288Z,13.85
2023-01-07T08:59:21.530Z,13.36
2023-01-07T09:02:23.755Z,13.36
2023-01-07T09:05:26.020Z,14.18
2023-01-07T09:08:28.286Z,14.24
2023-01-07T09:11:30.539Z,14.00
2023-01-07T09:14:32.775Z,13.74
2023-01-07T09:17:35.061Z,13.53
2023-01-07T09:20:37.343Z,12.45
2023-01-07T09:23:40.489Z,12.58
2023-01-07T09:26:43.646Z,13.06
2023-01-07T09:29:45.981Z,13.26
2023-01-07T09:32:55.284Z,14.66
2023-01-07T09:35:57.498Z,15.04
2023-01-07T09:38:59.921Z,14.84
2023-01-07T09:42:09.284Z,13.39
2023-01-07T09:45:14.381Z,13.13
2023-01-07T09:48:31.724Z,12.92
2023-01-07T09:51:39.059Z,12.32
2023-01-07T09:54:42.059Z,12.44
2023-01-07T09:57:44.404Z,13.34
2023-01-07T10:01:37.782Z,12.54
2023-01-07T10:04:56.274Z,13.44
2023-01-07T10:08:29.910Z,14.49
2023-01-07T10:11:55.552Z,15.48
2023-01-07T10:15:07.871Z,15.73
2023-01-07T10:18:42.863Z,15.79
2023-01-07T10:21:55.701Z,17.45
2023-01-07T10:25:03.019Z,18.52
2023-01-07T10:28:10.937Z,19.34
2023-01-07T10:31:19.892Z,19.06
2023-01-07T10:34:34.444Z,19.60
2023-01-07T10:37:39.525Z,18.58
2023-01-07T10:40:44.135Z,17.29
2023-01-07T10:44:10.386Z,17.81
2023-01-07T10:47:50.562Z,18.66
2023-01-07T10:50:52.785Z,19.35
2023-01-07T10:54:13.009Z,19.43
2023-01-07T10:57:19.935Z,20.33
2023-01-07T11:00:24.219Z,21.08
2023-01-07T11:03:26.844Z,22.16
2023-01-07T11:06:49.355Z,21.76
2023-01-07T11:09:53.558Z,22.74
2023-01-07T11:13:00.041Z,23.33
2023-01-07T11:16:17.482Z,23.86
2023-01-07T11:19:22.357Z,23.92
2023-01-07T11:22:27.499Z,24.48
2023-01-07T11:25:29.876Z,24.76
2023-01-07T11:28:33.623Z,25.03
2023-01-07T11:32:03.936Z,25.08
2023-01-07T11:35:23.302Z,25.19
2023-01-07T11:38:33.970Z,25.18
2023-01-07T11:41:36.206Z,25.63
2023-01-07T11:44:38.448Z,25.05
2023-01-07T11:47:47.014Z,25.33
2023-01-07T11:51:05.228Z,25.80
2023-01-07T11:54:20.658Z,25.73
2023-01-07T11:57:25.548Z,26.28
2023-01-07T12:00:31.482Z,24.90
2023-01-07T12:03:38.235Z,25.22
2023-01-07T12:06:44.414Z,25.18
2023-01-07T12:09:46.935Z,25.39
2023-01-07T12:12:49.218Z,22.84
2023-01-07T12:16:02.055Z,22.20
2023-01-07T12:19:32.900Z,23.55
2023-01-07T12:22:46.013Z,22.21
2023-01-07T12:25:54.146Z,23.66
2023-01-07T12:28:59.335Z,22.85
2023-01-07T12:32:07.684Z,22.72
2023-01-07T12:35:18.183Z,22.78
2023-01-07T12:38:40.633Z,22.95
2023-01-07T12:41:50.356Z,21.31
2023-01-07T12:45:01.712Z,21.52
2023-01-07T12:48:07.824Z,21.39
2023-01-07T12:51:24.848Z,20.94
2023-01-07T12:54:44.490Z,20.67
2023-01-07T12:58:03.553Z,20.32
2023-01-07T13:01:35.804Z,19.85
2023-01-07T13:04:55.680Z,19.75
2023-01-07T13:08:04.096Z,20.26
2023-01-07T13:11:20.339Z,20.16
2023-01-07T13:14:27.413Z,20.06
2023-01-07T13:17:31.469Z,20.73
2023-01-07T13:20:41.136Z,20.88
2023-01-07T13:24:20.516Z,20.40
2023-01-07T13:28:13.980Z,19.67
2023-01-07T13:31:46.449Z,18.81
2023-01-07T13:34:51.388Z,19.13
2023-01-07T13:38:08.622Z,19.14
2023-01-07T13:41:16.959Z,19.24
2023-01-07T13:44:40.851Z,19.16
2023-01-07T13:48:00.731Z,17.62
2023-01-07T13:51:06.143Z,17.87
2023-01-07T13:54:11.686Z,17.60
2023-01-07T13:57:26.311Z,18.10
2023-01-07T14:00:47.991Z,17.57
2023-01-07T14:03:51.049Z,17.47
2023-01-07T14:06:53.368Z,17.28
2023-01-07T14:09:57.352Z,16.91
2023-01-07T14:13:33.678Z,16.72
2023-01-07T14:16:46.665Z,16.82
2023-01-07T14:20:02.373Z,16.50
2023-01-07T14:23:16.309Z,15.88
2023-01-07T14:27:01.940Z,15.18
2023-01-07T14:30:20.912Z,14.09
2023-01-07T14:33:26.516Z,13.77
2023-01-07T14:36:59.736Z,13.26
2023-01-07T14:40:30.830Z,12.83
2023-01-07T14:43:47.750Z,12.69
2023-01-07T14:46:50.690Z,12.35
2023-01-07T14:50:00.945Z,12.07
2023-01-07T14:53:37.433Z,11.74
2023-01-07T14:56:48.647Z,11.49
2023-01-07T15:00:05.762Z,11.18
2023-01-07T15:03:50.898Z,10.81
2023-01-07T15:06:57.206Z,10.51
2023-01-07T15:10:23.827Z,10.23
2023-01-07T15:13:45.905Z,9.99
2023-01-07T15:16:55.456Z,9.75
2023-01-07T15:19:59.368Z,9.55
2023-01-07T15:23:06.568Z,9.32
2023-01-07T15:26:28.667Z,9.23
2023-01-07T15:29:45.878Z,8.81
2023-01-07T15:33:32.445Z,8.57
2023-01-07T15:36:40.753Z,8.38
2023-01-07T15:39:52.083Z,8.24
2023-01-07T15:42:57.761Z,8.07
2023-01-07T15:46:03.170Z,8.12
2023-01-07T15:49:11.058Z,7.95
2023-01-07T15:52:23.504Z,7.81
2023-01-07T15:55:28.844Z,7.88
2023-01-07T15:58:39.968Z,7.83
2023-01-07T16:01:50.841Z,7.87
2023-01-07T16:04:56.197Z,7.87
2023-01-07T16:08:00.674Z,7.88
2023-01-07T16:11:19.889Z,7.88
2023-01-07T16:14:24.848Z,7.71
2023-01-07T16:17:27.456Z,7.64
2023-01-07T16:20:39.002Z,7.60
2023-01-07T16:23:41.561Z,7.43
2023-01-07T16:26:47.152Z,7.27
2023-01-07T16:29:54.477Z,7.25
2023-01-07T16:32:57.474Z,7.15
2023-01-07T16:36:02.509Z,6.92
2023-01-07T16:39:15.284Z,7.01
2023-01-07T16:42:27.307Z,7.02
2023-01-07T16:45:32.605Z,7.08
2023-01-07T16:48:34.918Z,7.09
2023-01-07T16:51:41.765Z,7.02
2023-01-07T16:54:48.398Z,6.98
2023-01-07T16:57:50.685Z,6.96
2023-01-07T17:00:55.307Z,7.05
2023-01-07T17:04:01.055Z,7.05
2023-01-07T17:07:03.911Z,7.06
2023-01-07T17:10:07.068Z,6.98
2023-01-07T17:13:15.029Z,6.89
2023-01-07T17:16:28.321Z,6.89
2023-01-07T17:19:42.071Z,6.91
2023-01-07T17:22:45.286Z,6.92
2023-01-07T17:25:48.648Z,6.82
2023-01-07T17:29:13.229Z,6.80
2023-01-07T17:32:15.893Z,6.84
2023-01-07T17:35:23.873Z,6.70
2023-01-07T17:38:26.101Z,6.72
2023-01-07T17:41:47.097Z,6.63
2023-01-07T17:44:49.740Z,6.64
2023-01-07T17:47:52.894Z,6.55
2023-01-07T17:50:57.984Z,6.51
2023-01-07T17:54:00.304Z,6.55
2023-01-07T17:57:02.580Z,6.50
2023-01-07T18:00:05.392Z,6.41
2023-01-07T18:03:15.138Z,6.44
2023-01-07T18:06:20.917Z,6.37
2023-01-07T18:09:23.144Z,6.37
2023-01-07T18:12:31.776Z,6.31
2023-01-07T18:15:34.035Z,6.17
2023-01-07T18:18:36.314Z,6.19
2023-01-07T18:21:38.551Z,6.10
2023-01-07T18:24:40.830Z,6.09
2023-01-07T18:27:43.284Z,6.05
2023-01-07T18:30:45.511Z,5.92
2023-01-07T18:33:48.491Z,5.93
2023-01-07T18:36:50.928Z,6.00
2023-01-07T18:39:53.113Z,6.06
2023-01-07T18:42:56.569Z,5.98
2023-01-07T18:45:58.845Z,5.98
2023-01-07T18:49:01.178Z,5.90
2023-01-07T18:52:03.405Z,5.80
2023-01-07T18:55:06.464Z,5.62
2023-01-07T18:58:12.122Z,5.49
2023-01-07T19:01:14.448Z,5.32
2023-01-07T19:04:16.802Z,4.89
2023-01-07T19:07:19.261Z,5.07
2023-01-07T19:10:22.463Z,5.18
2023-01-07T19:13:24.701Z,5.18
2023-01-07T19:16:27.076Z,5.16
2023-01-07T19:19:34.265Z,5.16
2023-01-07T19:22:46.669Z,4.83
2023-01-07T19:26:04.423Z,4.77
2023-01-07T19:29:06.838Z,4.65
2023-01-07T19:32:09.897Z,4.56
2023-01-07T19:35:12.784Z,4.72
2023-01-07T19:38:15.005Z,4.75
2023-01-07T19:41:19.174Z,4.67
2023-01-07T19:44:21.418Z,4.50
2023-01-07T19:47:23.832Z,4.60
2023-01-07T19:50:26.087Z,4.70
2023-01-07T19:53:30.069Z,4.73
2023-01-07T19:56:33.285Z,4.72
2023-01-07T19:59:36.184Z,4.56
2023-01-07T20:02:38.481Z,4.39
2023-01-07T20:05:40.722Z,4.21
2023-01-07T20:08:43.310Z,4.15
2023-01-07T20:11:45.900Z,4.11
2023-01-07T20:14:48.686Z,4.24
2023-01-07T20:17:50.930Z,4.29
2023-01-07T20:21:00.106Z,4.36
2023-01-07T20:24:06.256Z,4.35
2023-01-07T20:27:08.487Z,4.34
2023-01-07T20:30:11.343Z,4.32
2023-01-07T20:33:13.805Z,4.19
2023-01-07T20:36:18.482Z,4.11
2023-01-07T20:39:20.751Z,4.05
2023-01-07T20:42:23.273Z,4.21
2023-01-07T20:45:25.470Z,4.31
2023-01-07T20:48:27.937Z,4.45
2023-01-07T20:51:30.292Z,4.29
2023-01-07T20:54:32.556Z,4.04
2023-01-07T20:57:34.764Z,3.90
2023-01-07T21:00:39.817Z,3.97
2023-01-07T21:03:43.428Z,3.91
2023-01-07T21:06:45.672Z,3.74
2023-01-07T21:09:47.876Z,3.62
2023-01-07T21:12:50.125Z,3.60
2023-01-07T21:15:52.437Z,3.54
2023-01-07T21:18:55.565Z,3.66
2023-01-07T21:21:57.808Z,3.57
2023-01-07T21:25:00.971Z,3.53
2023-01-07T21:28:03.613Z,3.54
2023-01-07T21:31:11.617Z,3.63
2023-01-07T21:34:15.464Z,3.59
2023-01-07T21:37:17.826Z,3.53
2023-01-07T21:40:20.517Z,3.53
2023-01-07T21:43:22.710Z,3.63
2023-01-07T21:46:25.088Z,3.76
2023-01-07T21:49:27.410Z,3.60
2023-01-07T21:52:29.694Z,3.42
2023-01-07T21:55:31.961Z,3.32
2023-01-07T21:58:36.827Z,3.25
2023-01-07T22:01:39.255Z,3.18
2023-01-07T22:04:41.780Z,3.16
2023-01-07T22:07:44.028Z,3.05
2023-01-07T22:10:49.189Z,3.06
2023-01-07T22:13:56.935Z,2.99
2023-01-07T22:17:02.253Z,2.91
2023-01-07T22:20:05.231Z,2.99
2023-01-07T22:23:08.094Z,2.98
2023-01-07T22:26:10.730Z,2.94
2023-01-07T22:29:13.091Z,2.98
2023-01-07T22:32:15.330Z,2.98
2023-01-07T22:35:18.492Z,2.88
2023-01-07T22:38:23.500Z,2.78
2023-01-07T22:41:28.203Z,2.71
2023-01-07T22:44:37.588Z,2.81
2023-01-07T22:47:44.878Z,2.77
2023-01-07T22:50:47.101Z,2.72
2023-01-07T22:53:51.147Z,2.68
2023-01-07T22:56:53.913Z,2.64
2023-01-07T22:59:58.209Z,2.62
2023-01-07T23:03:00.693Z,2.70
2023-01-07T23:06:02.953Z,2.70
2023-01-07T23:09:05.746Z,2.66
2023-01-07T23:12:11.067Z,2.58
2023-01-07T23:15:13.407Z,2.54
2023-01-07T23:18:15.788Z,2.57
2023-01-07T23:21:18.041Z,2.57
2023-01-07T23:24:21.108Z,2.57
2023-01-07T23:27:23.328Z,2.58
2023-01-07T23:30:25.558Z,2.44
2023-01-07T23:33:27.807Z,2.38
2023-01-07T23:36:30.066Z,2.43
2023-01-07T23:39:32.349Z,2.37
2023-01-07T23:42:35.452Z,2.41
2023-01-07T23:45:37.725Z,2.44
2023-01-07T23:48:39.986Z,2.26
2023-01-07T23:51:42.251Z,2.16
2023-01-07T23:54:44.627Z,2.22
2023-01-07T23:57:46.889Z,2.22
